Whitefish Bay, Wisconsin
Current Conditions -  °F | °C
As of 6:45 AM on Thursday 27 Nov 2014 (Local Time) from KMWC Reporting Station
Overcast Overcast  
Wind Chill: 11°   Ceiling: 2400
Heat Index: 21°   Visibility: 10mi
Dew Point: 18°   Wind: 9mph
Humidity: 86%   Direction: 310°NW
Pressure: 30.27"   Gusts: 16mph
Location:  43.1576°N, 87.9144°W
Report Text: KMWC 271245Z AUTO 31008G14KT 10SM OVC024 M06/M08 A3027 RMK FIRST
Loading
Personal Weather Stations






























Interactive Weather Map New forecast layout! Learn more

10-Day Weather Forecast

Advertisements
Track Severe Weather on mobile